Time;durP1;ratioP1;P1;durP2;ratioP2;P2;SDS_P1;SDS_P2;PMS_P1;PMS_P2;Temp;Humidity;BMP_temperature;BMP_pressure;BME280_temperature;BME280_humidity;BME280_pressure;Samples;Min_cycle;Max_cycle;Signal;HPM_P1;HPM_P2
2022/11/26 00:00:53;;;;;;;;;;;16.10;99.90;;;;;;7409540;19;19914;-41
2022/11/26 00:03:24;;;;;;;1.75;0.90;;;16.10;99.90;;;;;;7407365;19;19918;-42
2022/11/26 00:05:56;;;;;;;1.50;0.35;;;16.10;99.90;;;;;;7406972;19;19923;-41
2022/11/26 00:08:32;;;;;;;2.75;0.80;;;16.10;99.90;;;;;;7407449;19;19914;-41
2022/11/26 00:11:01;;;;;;;2.03;0.20;;;16.10;99.90;;;;;;7407061;19;20373;-42
2022/11/26 00:13:32;;;;;;;2.53;0.90;;;16.10;99.90;;;;;;7405935;19;19914;-41
2022/11/26 00:16:01;;;;;;;1.95;0.70;;;16.10;99.90;;;;;;7407424;19;19907;-41
2022/11/26 00:18:30;;;;;;;2.83;0.90;;;16.10;99.90;;;;;;7406919;19;19914;-41
2022/11/26 00:21:02;;;;;;;2.10;0.70;;;16.10;99.90;;;;;;7406659;19;19911;-41
2022/11/26 00:23:34;;;;;;;2.40;0.60;;;16.10;99.90;;;;;;7406524;19;19915;-41
2022/11/26 00:26:05;;;;;;;1.60;0.43;;;16.10;99.90;;;;;;7406786;19;19918;-42
2022/11/26 00:28:37;;;;;;;1.98;0.75;;;16.10;99.90;;;;;;7406365;19;19923;-41
2022/11/26 00:31:08;;;;;;;2.08;0.57;;;16.00;99.90;;;;;;7406757;19;19922;-40
2022/11/26 00:33:37;;;;;;;2.10;0.68;;;16.00;99.90;;;;;;7405043;19;19925;-41
2022/11/26 00:36:20;;;;;;;2.45;0.80;;;16.10;99.90;;;;;;7406764;19;20337;-42
2022/11/26 00:38:56;;;;;;;1.27;0.20;;;16.00;99.90;;;;;;7406441;19;19934;-42
2022/11/26 00:41:28;;;;;;;2.30;0.80;;;16.00;99.90;;;;;;7406208;19;20333;-41
2022/11/26 00:43:57;;;;;;;1.40;0.32;;;16.00;99.90;;;;;;7406285;19;19917;-41
2022/11/26 00:46:26;;;;;;;1.80;0.65;;;16.00;99.90;;;;;;7406089;19;19935;-49
2022/11/26 00:48:55;;;;;;;1.23;0.65;;;16.00;99.90;;;;;;7406718;19;19922;-41
2022/11/26 00:51:28;;;;;;;1.23;0.30;;;16.00;99.90;;;;;;7404772;19;19918;-41
2022/11/26 00:54:03;;;;;;;1.73;0.40;;;16.00;99.90;;;;;;7404630;19;20333;-40
2022/11/26 00:56:32;;;;;;;2.13;0.98;;;16.00;99.90;;;;;;7405743;19;19970;-41
2022/11/26 00:59:01;;;;;;;1.55;0.22;;;16.00;99.90;;;;;;7405930;19;19919;-43
2022/11/26 01:01:31;;;;;;;2.10;0.40;;;16.00;99.90;;;;;;7406041;19;19943;-42
2022/11/26 01:04:00;;;;;;;;;;;16.00;99.90;;;;;;7407999;19;19952;-42
2022/11/26 01:06:34;;;;;;;2.33;0.50;;;16.00;99.90;;;;;;7405992;19;19918;-42
2022/11/26 01:09:06;;;;;;;3.00;0.80;;;16.00;99.90;;;;;;7405774;19;19911;-41
2022/11/26 01:11:35;;;;;;;1.17;0.13;;;16.00;99.90;;;;;;7405663;19;19974;-41
2022/11/26 01:14:04;;;;;;;1.67;0.73;;;16.00;99.90;;;;;;7404547;19;19918;-41
2022/11/26 01:16:40;;;;;;;1.50;0.80;;;16.00;99.90;;;;;;7405632;19;19918;-42
2022/11/26 01:19:13;;;;;;;2.17;0.40;;;16.00;99.90;;;;;;7404976;19;19915;-41
2022/11/26 01:21:42;;;;;;;1.73;0.20;;;15.90;99.90;;;;;;7404935;19;19975;-42
2022/11/26 01:24:13;;;;;;;2.00;0.80;;;15.90;99.90;;;;;;7405327;19;19970;-41
2022/11/26 01:26:44;;;;;;;1.20;0.60;;;15.90;99.90;;;;;;7409067;19;19926;-40
2022/11/26 01:29:17;;;;;;;2.13;0.40;;;15.90;99.90;;;;;;7404728;19;20265;-39
2022/11/26 01:31:46;;;;;;;1.73;0.20;;;16.00;99.90;;;;;;7404822;19;19921;-41
2022/11/26 01:34:15;;;;;;;2.33;0.60;;;15.90;99.90;;;;;;7403251;19;19915;-41
2022/11/26 01:36:44;;;;;;;2.08;0.68;;;15.90;99.90;;;;;;7404268;19;19927;-42
2022/11/26 01:39:17;;;;;;;1.83;0.60;;;15.90;99.90;;;;;;7404538;19;19925;-39
2022/11/26 01:41:51;;;;;;;1.50;0.25;;;15.90;99.90;;;;;;7404632;19;19914;-41
2022/11/26 01:44:23;;;;;;;2.30;0.85;;;15.90;99.90;;;;;;7404443;19;20364;-41
2022/11/26 01:46:53;;;;;;;1.40;0.32;;;15.90;99.90;;;;;;7404321;19;19915;-41
2022/11/26 01:49:24;;;;;;;2.58;0.30;;;15.90;99.90;;;;;;7404457;19;19928;-43
2022/11/26 01:52:02;;;;;;;1.50;0.30;;;15.90;99.90;;;;;;7404337;19;20277;-40
2022/11/26 01:54:36;;;;;;;1.73;0.50;;;15.90;99.90;;;;;;7402840;19;19915;-41
2022/11/26 01:57:11;;;;;;;2.28;0.40;;;15.90;99.90;;;;;;7403643;19;19915;-41
2022/11/26 01:59:44;;;;;;;1.70;0.30;;;15.90;99.90;;;;;;7404003;19;19988;-41
2022/11/26 02:02:13;;;;;;;2.40;0.70;;;15.90;99.90;;;;;;7402145;19;19918;-40
2022/11/26 02:04:47;;;;;;;1.35;0.35;;;15.90;99.90;;;;;;7403304;19;19917;-42
2022/11/26 02:07:17;;;;;;;2.85;0.50;;;15.90;99.90;;;;;;7403618;19;19978;-42
2022/11/26 02:09:49;;;;;;;2.30;1.10;;;15.90;99.90;;;;;;7404199;19;19929;-40
2022/11/26 02:12:19;;;;;;;1.55;0.50;;;15.90;99.90;;;;;;7403884;19;19915;-42
2022/11/26 02:14:49;;;;;;;1.92;0.82;;;15.90;99.90;;;;;;7402179;19;19970;-41
2022/11/26 02:17:31;;;;;;;1.50;0.63;;;15.80;99.90;;;;;;7403630;19;19915;-41
2022/11/26 02:20:29;;;;;;;1.83;0.30;;;15.80;99.90;;;;;;7403576;19;19914;-41
2022/11/26 02:23:28;;;;;;;1.80;0.65;;;15.80;99.90;;;;;;7403396;19;19914;-41
2022/11/26 02:26:33;;;;;;;1.75;0.77;;;15.80;99.90;;;;;;7401640;19;19918;-41
2022/11/26 02:29:15;;;;;;;2.10;1.13;;;15.80;99.90;;;;;;7403667;19;19914;-41
2022/11/26 02:31:52;;;;;;;1.85;0.20;;;15.80;99.90;;;;;;7403086;19;19915;-41
2022/11/26 02:34:26;;;;;;;3.38;0.45;;;15.80;99.90;;;;;;7402007;19;19922;-41
2022/11/26 02:37:00;;;;;;;1.40;0.28;;;15.80;99.90;;;;;;7402636;19;20264;-41
2022/11/26 02:39:31;;;;;;;1.50;0.52;;;15.80;99.90;;;;;;7402705;19;19922;-42
2022/11/26 02:42:03;;;;;;;1.80;0.68;;;15.80;99.90;;;;;;7402860;19;19927;-42
2022/11/26 02:44:37;;;;;;;1.80;0.65;;;15.80;99.90;;;;;;7402604;19;20298;-42
2022/11/26 02:47:13;;;;;;;2.38;0.40;;;15.80;99.90;;;;;;7402613;19;19922;-40
2022/11/26 02:49:45;;;;;;;2.50;0.90;;;15.80;99.90;;;;;;7402618;19;19954;-41
2022/11/26 02:52:18;;;;;;;2.55;0.30;;;15.80;99.90;;;;;;7402434;19;19919;-41
2022/11/26 02:54:49;;;;;;;1.50;0.60;;;15.80;99.90;;;;;;7403855;19;19935;-42
2022/11/26 02:57:22;;;;;;;1.95;0.30;;;15.80;99.90;;;;;;7402107;19;19931;-42
2022/11/26 02:59:51;;;;;;;1.85;0.88;;;15.80;99.90;;;;;;7402383;19;20336;-41
2022/11/26 03:02:27;;;;;;;2.88;0.70;;;15.70;99.90;;;;;;7402148;19;20353;-41
2022/11/26 03:05:01;;;;;;;1.98;0.68;;;15.80;99.90;;;;;;7402203;19;20345;-41
2022/11/26 03:07:32;;;;;;;1.40;0.15;;;15.70;99.90;;;;;;7400357;19;19919;-41
2022/11/26 03:10:03;;;;;;;1.38;0.60;;;15.80;99.90;;;;;;7402741;19;19918;-42
2022/11/26 03:12:32;;;;;;;1.42;0.55;;;15.70;99.90;;;;;;7401769;19;19922;-41
2022/11/26 03:15:01;;;;;;;1.85;0.65;;;15.70;99.90;;;;;;7403823;19;19921;-40
2022/11/26 03:17:32;;;;;;;1.95;0.70;;;15.70;99.90;;;;;;7408487;19;19932;-42
2022/11/26 03:20:02;;;;;;;1.75;0.47;;;15.70;99.90;;;;;;7406552;19;19921;-41
2022/11/26 03:22:31;;;;;;;1.90;0.52;;;15.70;99.90;;;;;;7409951;19;20354;-42
2022/11/26 03:25:00;;;;;;;3.05;0.60;;;15.70;99.90;;;;;;7408256;19;19910;-41
2022/11/26 03:27:29;;;;;;;1.65;0.80;;;15.70;99.90;;;;;;7407914;19;19926;-42
2022/11/26 03:29:58;;;;;;;1.77;0.70;;;15.70;99.90;;;;;;7408051;19;19911;-42
2022/11/26 03:32:27;;;;;;;;;;;15.70;99.90;;;;;;7410139;19;19934;-41
2022/11/26 03:34:59;;;;;;;1.27;0.25;;;15.70;99.90;;;;;;7406044;19;20272;-42
2022/11/26 03:37:28;;;;;;;1.70;0.68;;;15.70;99.90;;;;;;7406398;19;20354;-41
2022/11/26 03:39:56;;;;;;;1.00;0.57;;;15.70;99.90;;;;;;7408054;19;19915;-41
2022/11/26 03:42:25;;;;;;;1.80;0.77;;;15.70;99.90;;;;;;7407784;19;19929;-41
2022/11/26 03:44:55;;;;;;;1.75;0.50;;;15.70;99.90;;;;;;7407886;19;19915;-41
2022/11/26 03:47:24;;;;;;;3.03;0.40;;;15.70;99.90;;;;;;7407371;19;19918;-40
2022/11/26 03:49:53;;;;;;;1.98;0.30;;;15.60;99.90;;;;;;7407787;19;19949;-42
2022/11/26 03:52:24;;;;;;;1.77;0.88;;;15.60;99.90;;;;;;7407551;19;19978;-42
2022/11/26 03:54:53;;;;;;;1.73;0.43;;;15.60;99.90;;;;;;7406114;19;20332;-41
2022/11/26 03:57:22;;;;;;;1.83;0.93;;;15.60;99.90;;;;;;7407183;19;19915;-41
2022/11/26 03:59:51;;;;;;;1.65;0.40;;;15.60;99.90;;;;;;7407127;19;20041;-42
2022/11/26 04:02:20;;;;;;;1.48;0.80;;;15.60;99.90;;;;;;7407355;19;19931;-42
2022/11/26 04:04:48;;;;;;;1.50;0.60;;;15.60;99.90;;;;;;7407241;19;19933;-42
2022/11/26 04:07:18;;;;;;;1.45;0.38;;;15.60;99.90;;;;;;7407266;19;19910;-41
2022/11/26 04:09:49;;;;;;;1.60;0.40;;;15.60;99.90;;;;;;7407456;19;20341;-41
2022/11/26 04:12:20;;;;;;;1.80;0.57;;;15.60;99.90;;;;;;7406996;19;19918;-42
2022/11/26 04:14:49;;;;;;;1.58;0.82;;;15.60;99.90;;;;;;7405852;19;19934;-41
2022/11/26 04:17:18;;;;;;;2.10;0.77;;;15.60;99.90;;;;;;7406725;19;19923;-41
2022/11/26 04:19:47;;;;;;;1.77;0.60;;;15.60;99.90;;;;;;7407184;19;19919;-42
2022/11/26 04:22:16;;;;;;;2.20;0.63;;;15.60;99.90;;;;;;7410602;19;19914;-42
2022/11/26 04:24:45;;;;;;;2.50;0.30;;;15.60;99.90;;;;;;7406333;19;20264;-41
2022/11/26 04:27:16;;;;;;;1.25;0.50;;;15.60;99.90;;;;;;7404205;19;19919;-41
2022/11/26 04:29:45;;;;;;;1.35;0.50;;;15.60;99.90;;;;;;7406968;19;19915;-41
2022/11/26 04:32:14;;;;;;;2.15;0.80;;;15.60;99.90;;;;;;7406555;19;19911;-43
2022/11/26 04:34:43;;;;;;;;;;;15.60;99.90;;;;;;7407731;19;19923;-40
2022/11/26 04:37:12;;;;;;;1.23;0.43;;;15.60;99.90;;;;;;7405554;19;20291;-40
2022/11/26 04:39:41;;;;;;;2.40;0.30;;;15.60;99.90;;;;;;7406092;19;20280;-41
2022/11/26 04:42:10;;;;;;;2.05;0.63;;;15.60;99.90;;;;;;7406255;19;19914;-41
2022/11/26 04:44:42;;;;;;;1.30;0.40;;;15.60;99.90;;;;;;7406086;19;19918;-41
2022/11/26 04:47:10;;;;;;;2.70;0.47;;;15.50;99.90;;;;;;7405939;19;19935;-44
2022/11/26 04:49:39;;;;;;;2.92;0.60;;;15.60;99.90;;;;;;7405783;19;19917;-41
2022/11/26 04:52:08;;;;;;;2.20;0.30;;;15.60;99.90;;;;;;7405814;19;19933;-40
2022/11/26 04:54:37;;;;;;;2.30;0.50;;;15.50;99.90;;;;;;7405204;19;20423;-41
2022/11/26 04:57:06;;;;;;;1.70;0.65;;;15.50;99.90;;;;;;7405952;19;20353;-41
2022/11/26 04:59:35;;;;;;;1.33;0.63;;;15.50;99.90;;;;;;7406521;19;19932;-42
2022/11/26 05:02:07;;;;;;;2.03;1.05;;;15.50;99.90;;;;;;7405898;19;19922;-42
2022/11/26 05:04:36;;;;;;;2.00;0.85;;;15.50;99.90;;;;;;7405251;19;19926;-40
2022/11/26 05:07:05;;;;;;;1.45;0.63;;;15.50;99.90;;;;;;7405851;19;19921;-41
2022/11/26 05:09:34;;;;;;;1.73;0.70;;;15.50;99.90;;;;;;7405364;19;19919;-41
2022/11/26 05:12:03;;;;;;;2.00;0.70;;;15.50;99.90;;;;;;7405610;19;19914;-41
2022/11/26 05:14:32;;;;;;;2.85;0.77;;;15.50;99.90;;;;;;7404272;19;20335;-42
2022/11/26 05:17:01;;;;;;;1.75;0.82;;;15.50;99.90;;;;;;7405378;19;19925;-41
2022/11/26 05:19:33;;;;;;;1.50;0.93;;;15.50;99.90;;;;;;7406694;19;19911;-41
2022/11/26 05:22:01;;;;;;;2.08;0.60;;;15.50;99.90;;;;;;7405287;19;19922;-41
2022/11/26 05:24:30;;;;;;;1.75;0.60;;;15.50;99.90;;;;;;7405125;19;19918;-41
2022/11/26 05:26:59;;;;;;;2.53;0.13;;;15.50;99.90;;;;;;7404685;19;19915;-41
2022/11/26 05:29:28;;;;;;;2.03;0.65;;;15.50;99.90;;;;;;7404847;19;19957;-40
2022/11/26 05:31:57;;;;;;;1.20;0.63;;;15.50;99.90;;;;;;7404834;19;19914;-41
2022/11/26 05:34:26;;;;;;;2.42;1.00;;;15.50;99.90;;;;;;7404781;19;19918;-42
2022/11/26 05:36:58;;;;;;;1.58;0.30;;;15.50;99.90;;;;;;7404039;19;20246;-41
2022/11/26 05:39:27;;;;;;;2.38;0.50;;;15.40;99.90;;;;;;7404800;19;20291;-42
2022/11/26 05:41:56;;;;;;;1.23;0.20;;;15.50;99.90;;;;;;7404982;19;19915;-41
2022/11/26 05:44:25;;;;;;;2.05;0.57;;;15.40;99.90;;;;;;7404670;19;19915;-40
2022/11/26 05:46:54;;;;;;;1.30;0.20;;;15.40;99.90;;;;;;7405074;19;19922;-43
2022/11/26 05:49:23;;;;;;;1.38;0.52;;;15.40;99.90;;;;;;7404697;19;19918;-41
2022/11/26 05:51:52;;;;;;;1.50;0.20;;;15.40;99.90;;;;;;7404703;19;20633;-41
2022/11/26 05:54:25;;;;;;;1.58;0.52;;;15.40;99.90;;;;;;7404189;19;19939;-41
2022/11/26 05:56:54;;;;;;;2.25;0.45;;;15.40;99.90;;;;;;7403740;19;19922;-41
2022/11/26 05:59:22;;;;;;;1.85;0.73;;;15.40;99.90;;;;;;7403892;19;19939;-41
2022/11/26 06:01:51;;;;;;;0.90;0.22;;;15.40;99.90;;;;;;7404067;19;19915;-42
2022/11/26 06:04:20;;;;;;;1.38;0.68;;;15.40;99.90;;;;;;7403719;19;19925;-41
2022/11/26 06:06:49;;;;;;;2.25;0.60;;;15.40;99.90;;;;;;7403594;19;19949;-41
2022/11/26 06:09:19;;;;;;;1.25;0.70;;;15.40;99.90;;;;;;7403997;19;19924;-42
2022/11/26 06:11:51;;;;;;;1.55;0.20;;;15.40;99.90;;;;;;7403713;19;20341;-41
2022/11/26 06:14:20;;;;;;;0.98;0.20;;;15.40;99.90;;;;;;7403770;19;20333;-41
2022/11/26 06:16:49;;;;;;;0.70;0.10;;;15.40;99.90;;;;;;7402236;19;19919;-42
2022/11/26 06:19:18;;;;;;;1.40;0.28;;;15.40;99.90;;;;;;7407330;19;20264;-40
2022/11/26 06:21:47;;;;;;;0.95;0.30;;;15.40;99.90;;;;;;7403808;19;19914;-39
2022/11/26 06:24:16;;;;;;;1.70;0.85;;;15.30;99.90;;;;;;7403219;19;20349;-41
2022/11/26 06:26:45;;;;;;;1.45;0.30;;;15.30;99.90;;;;;;7402487;19;20353;-42
2022/11/26 06:29:16;;;;;;;1.33;0.60;;;15.40;99.90;;;;;;7403071;19;19944;-41
2022/11/26 06:31:45;;;;;;;1.73;0.60;;;15.30;99.90;;;;;;7403440;19;19911;-41
2022/11/26 06:34:16;;;;;;;1.88;0.73;;;15.30;99.90;;;;;;7402998;19;19921;-41
2022/11/26 06:36:44;;;;;;;1.70;0.90;;;15.30;99.90;;;;;;7401297;19;20700;-41
2022/11/26 06:39:14;;;;;;;0.80;0.20;;;15.40;99.90;;;;;;7403239;19;19933;-41
2022/11/26 06:41:43;;;;;;;1.48;0.22;;;15.30;99.90;;;;;;7402874;19;19917;-41
2022/11/26 06:44:12;;;;;;;1.15;0.20;;;15.30;99.90;;;;;;7402540;19;19922;-42
2022/11/26 06:46:43;;;;;;;1.10;0.38;;;15.30;99.90;;;;;;7402374;19;20268;-42
2022/11/26 06:49:12;;;;;;;1.00;0.22;;;15.30;99.90;;;;;;7404675;19;19978;-41
2022/11/26 06:51:41;;;;;;;1.25;0.75;;;15.30;99.90;;;;;;7409490;19;19929;-40
2022/11/26 06:54:10;;;;;;;1.60;0.90;;;15.30;99.90;;;;;;7409117;19;19918;-42
2022/11/26 06:56:39;;;;;;;1.20;0.60;;;15.30;99.90;;;;;;7406310;19;19915;-41
2022/11/26 06:59:08;;;;;;;1.55;0.82;;;15.30;99.90;;;;;;7409177;19;19911;-42
2022/11/26 07:01:36;;;;;;;1.50;0.13;;;15.30;99.90;;;;;;7408667;19;19929;-41
2022/11/26 07:04:08;;;;;;;2.85;0.70;;;15.30;99.90;;;;;;7408801;19;19917;-42
2022/11/26 07:06:37;;;;;;;1.33;0.20;;;15.30;99.90;;;;;;7408661;19;19918;-41
2022/11/26 07:09:09;;;;;;;1.80;0.68;;;15.20;99.90;;;;;;7408517;19;19928;-42
2022/11/26 07:11:40;;;;;;;1.35;0.77;;;15.30;99.90;;;;;;7408555;19;19930;-41
2022/11/26 07:14:09;;;;;;;1.33;0.20;;;15.30;99.90;;;;;;7408781;19;19915;-40
2022/11/26 07:16:38;;;;;;;1.45;0.60;;;15.30;99.90;;;;;;7407330;19;19929;-41
2022/11/26 07:19:13;;;;;;;1.95;0.60;;;15.30;99.90;;;;;;7408834;19;19922;-42
2022/11/26 07:21:42;;;;;;;1.50;0.80;;;15.30;99.90;;;;;;7408406;19;19921;-41
2022/11/26 07:24:11;;;;;;;1.20;0.50;;;15.20;99.90;;;;;;7407023;19;19925;-41
2022/11/26 07:26:40;;;;;;;1.38;1.23;;;15.20;99.90;;;;;;7408009;19;19914;-41
2022/11/26 07:29:09;;;;;;;2.33;0.82;;;15.20;99.90;;;;;;7408988;19;19914;-47
2022/11/26 07:31:38;;;;;;;1.50;0.30;;;15.20;99.90;;;;;;7408349;19;19946;-41
2022/11/26 07:34:10;;;;;;;2.03;0.68;;;15.20;99.90;;;;;;7408101;19;20347;-42
2022/11/26 07:36:42;;;;;;;0.90;0.20;;;15.20;99.90;;;;;;7405783;19;20341;-42
2022/11/26 07:39:13;;;;;;;1.50;0.28;;;15.20;99.90;;;;;;7408076;19;20328;-40
2022/11/26 07:41:42;;;;;;;1.77;0.20;;;15.20;99.90;;;;;;7407506;19;20340;-40
2022/11/26 07:44:14;;;;;;;1.42;0.32;;;15.20;99.90;;;;;;7407639;19;20352;-41
2022/11/26 07:46:43;;;;;;;2.05;1.30;;;15.20;99.90;;;;;;7407588;19;19918;-41
2022/11/26 07:49:15;;;;;;;1.65;0.30;;;15.30;99.90;;;;;;7407493;19;20360;-42
2022/11/26 07:51:43;;;;;;;1.42;0.40;;;15.20;99.90;;;;;;7408141;19;19915;-41
2022/11/26 07:54:12;;;;;;;1.55;0.30;;;15.30;99.90;;;;;;7407310;19;19952;-42
2022/11/26 07:56:41;;;;;;;0.90;0.28;;;15.20;99.90;;;;;;7405134;19;19929;-42
2022/11/26 07:59:12;;;;;;;1.27;0.65;;;15.20;99.90;;;;;;7407419;19;19921;-41
2022/11/26 08:01:41;;;;;;;1.15;0.13;;;15.20;99.90;;;;;;7407441;19;20333;-41
2022/11/26 08:04:10;;;;;;;1.13;0.40;;;15.30;99.90;;;;;;7405485;19;20336;-40
2022/11/26 08:06:42;;;;;;;1.20;0.20;;;15.20;99.90;;;;;;7407361;19;20230;-41
2022/11/26 08:09:12;;;;;;;1.85;0.70;;;15.20;99.90;;;;;;7407015;19;20372;-42
2022/11/26 08:11:41;;;;;;;1.40;0.15;;;15.20;99.90;;;;;;7406693;19;20568;-42
2022/11/26 08:14:12;;;;;;;0.90;0.30;;;15.20;99.90;;;;;;7406875;19;20353;-42
2022/11/26 08:16:43;;;;;;;1.63;1.25;;;15.20;99.90;;;;;;7408951;19;19981;-41
2022/11/26 08:19:14;;;;;;;0.90;0.47;;;15.20;99.90;;;;;;7407319;19;19922;-41
2022/11/26 08:21:46;;;;;;;1.02;0.25;;;15.30;99.90;;;;;;7406504;19;20337;-41
2022/11/26 08:24:16;;;;;;;1.58;0.30;;;15.20;99.90;;;;;;7406397;19;19910;-41
2022/11/26 08:26:45;;;;;;;1.00;0.20;;;15.20;99.90;;;;;;7406195;19;19925;-42
2022/11/26 08:29:15;;;;;;;1.40;0.30;;;15.20;99.90;;;;;;7406569;19;19918;-41
2022/11/26 08:31:44;;;;;;;1.42;0.70;;;15.20;99.90;;;;;;7406945;19;19949;-43
2022/11/26 08:34:15;;;;;;;1.27;0.40;;;15.20;99.90;;;;;;7406625;19;19926;-40
2022/11/26 08:36:47;;;;;;;1.52;0.80;;;15.30;99.90;;;;;;7404794;19;19919;-41
2022/11/26 08:39:17;;;;;;;1.02;0.73;;;15.20;99.90;;;;;;7406394;19;19929;-41
2022/11/26 08:41:47;;;;;;;2.35;0.77;;;15.20;99.90;;;;;;7406656;19;19926;-42
2022/11/26 08:44:16;;;;;;;1.40;0.35;;;15.20;99.90;;;;;;7406257;19;20353;-42
2022/11/26 08:46:45;;;;;;;1.02;0.20;;;15.20;99.90;;;;;;7405965;19;19917;-40
2022/11/26 08:49:16;;;;;;;1.52;0.60;;;15.30;99.90;;;;;;7405934;19;20356;-40
2022/11/26 08:51:47;;;;;;;1.48;0.90;;;15.20;99.90;;;;;;7406078;19;20377;-41
2022/11/26 08:54:16;;;;;;;1.08;0.70;;;15.20;99.90;;;;;;7406281;19;19936;-39
2022/11/26 08:56:45;;;;;;;1.35;0.73;;;15.20;99.90;;;;;;7404222;19;19921;-42
2022/11/26 08:59:15;;;;;;;1.30;0.52;;;15.20;99.90;;;;;;7405707;19;19923;-39
2022/11/26 09:01:44;;;;;;;1.42;0.30;;;15.20;99.90;;;;;;7405666;19;19942;-40
2022/11/26 09:04:13;;;;;;;1.17;0.20;;;15.20;99.90;;;;;;7405466;19;20241;-41
2022/11/26 09:06:42;;;;;;;1.33;0.77;;;15.20;99.90;;;;;;7405394;19;19922;-41
2022/11/26 09:09:14;;;;;;;1.80;0.20;;;15.20;99.90;;;;;;7405497;19;20250;-41
2022/11/26 09:11:46;;;;;;;1.55;0.60;;;15.30;99.90;;;;;;7404010;19;19975;-40
2022/11/26 09:14:15;;;;;;;1.60;0.70;;;15.20;99.90;;;;;;7407042;19;19935;-42
2022/11/26 09:16:45;;;;;;;1.45;0.80;;;15.20;99.90;;;;;;7404150;19;19925;-41
2022/11/26 09:19:15;;;;;;;1.45;0.70;;;15.20;99.90;;;;;;7405689;19;19918;-40
2022/11/26 09:21:44;;;;;;;1.80;0.50;;;15.20;99.90;;;;;;7405024;19;19914;-43
2022/11/26 09:24:17;;;;;;;1.80;1.08;;;15.20;99.90;;;;;;7405242;19;19922;-40
2022/11/26 09:26:47;;;;;;;1.70;0.82;;;15.20;99.90;;;;;;7404461;19;19919;-41
2022/11/26 09:29:17;;;;;;;1.67;0.88;;;15.30;99.90;;;;;;7405202;19;19914;-42
2022/11/26 09:31:47;;;;;;;1.40;0.82;;;15.30;99.90;;;;;;7404700;19;19971;-42
2022/11/26 09:34:16;;;;;;;;;;;15.30;99.90;;;;;;7407547;19;19919;-42
2022/11/26 09:36:45;;;;;;;1.27;0.40;;;15.30;99.90;;;;;;7403933;19;19944;-39
2022/11/26 09:39:17;;;;;;;1.52;0.30;;;15.30;99.90;;;;;;7404534;19;19921;-40
2022/11/26 09:41:53;;;;;;;2.00;0.85;;;15.30;99.90;;;;;;7404922;19;19938;-40
2022/11/26 09:44:28;;;;;;;1.27;0.60;;;15.30;99.90;;;;;;7405342;19;19934;-41
2022/11/26 09:47:10;;;;;;;1.60;0.70;;;15.30;99.90;;;;;;7404673;19;20341;-41
2022/11/26 09:49:45;;;;;;;2.08;0.73;;;15.30;99.90;;;;;;7404244;19;19911;-41
2022/11/26 09:52:17;;;;;;;1.80;0.20;;;15.30;99.90;;;;;;7404258;19;19919;-41
2022/11/26 09:54:52;;;;;;;1.60;0.80;;;15.30;99.90;;;;;;7404364;19;19922;-42
2022/11/26 09:57:29;;;;;;;1.48;0.75;;;15.30;99.90;;;;;;7400443;19;19926;-41
2022/11/26 09:59:58;;;;;;;1.10;0.75;;;15.30;99.90;;;;;;7404081;19;19923;-42
2022/11/26 10:02:27;;;;;;;1.50;0.60;;;15.30;99.90;;;;;;7403819;19;19918;-41
2022/11/26 10:04:56;;;;;;;2.05;0.75;;;15.30;99.90;;;;;;7404177;19;19914;-41
2022/11/26 10:07:52;;;;;;;1.45;0.95;;;15.30;99.90;;;;;;7404407;19;19929;-41
2022/11/26 10:10:31;;;;;;;1.55;0.80;;;15.30;99.90;;;;;;7403861;19;19932;-42
2022/11/26 10:13:08;;;;;;;1.88;0.73;;;15.30;99.90;;;;;;7405900;19;19994;-40
2022/11/26 10:15:44;;;;;;;1.48;0.70;;;15.30;99.90;;;;;;7402964;19;19919;-42
2022/11/26 10:18:21;;;;;;;2.13;0.85;;;15.30;99.90;;;;;;7401971;19;19982;-42
2022/11/26 10:21:11;;;;;;;1.52;0.30;;;15.30;99.90;;;;;;7403280;19;20232;-42
2022/11/26 10:23:45;;;;;;;1.42;0.70;;;15.30;99.90;;;;;;7399168;19;19978;-40
2022/11/26 10:26:19;;;;;;;1.08;0.30;;;15.30;99.90;;;;;;7402958;19;19919;-42
2022/11/26 10:28:49;;;;;;;1.40;0.30;;;15.30;99.90;;;;;;7403240;19;19918;-42
2022/11/26 10:31:22;;;;;;;1.70;0.30;;;15.30;99.90;;;;;;7403120;19;20264;-42
2022/11/26 10:33:56;;;;;;;1.02;0.17;;;15.30;99.90;;;;;;7402673;19;19918;-40
2022/11/26 10:36:27;;;;;;;1.58;0.77;;;15.30;99.90;;;;;;7402404;19;19911;-41
2022/11/26 10:38:57;;;;;;;1.20;0.40;;;15.30;99.90;;;;;;7402883;19;19911;-41
2022/11/26 10:41:35;;;;;;;1.02;0.32;;;15.40;99.90;;;;;;7403132;19;19915;-42
2022/11/26 10:44:38;;;;;;;1.63;0.73;;;15.40;99.90;;;;;;7403009;19;19915;-42
2022/11/26 10:47:24;;;;;;;1.00;0.20;;;15.30;99.90;;;;;;7402583;19;19935;-44
2022/11/26 10:49:54;;;;;;;1.40;0.77;;;15.30;99.90;;;;;;7402695;19;20340;-42
2022/11/26 10:52:27;;;;;;;1.55;0.60;;;15.30;99.90;;;;;;7402319;19;19987;-43
2022/11/26 10:55:16;;;;;;;1.55;0.77;;;15.30;99.90;;;;;;7402987;19;19918;-40
2022/11/26 10:57:51;;;;;;;1.33;0.68;;;15.30;99.90;;;;;;7400848;19;19938;-42
2022/11/26 11:00:36;;;;;;;1.58;0.30;;;15.30;99.90;;;;;;7402038;19;20014;-41
2022/11/26 11:03:07;;;;;;;1.55;0.40;;;15.30;99.90;;;;;;7402197;19;19918;-41
2022/11/26 11:05:36;;;;;;;1.65;0.70;;;15.30;99.90;;;;;;7402254;19;19923;-41
2022/11/26 11:08:05;;;;;;;1.58;0.80;;;15.40;99.90;;;;;;7402076;19;19917;-40
2022/11/26 11:10:34;;;;;;;1.23;0.35;;;15.30;99.90;;;;;;7402027;19;19933;-41
2022/11/26 11:13:13;;;;;;;1.58;1.00;;;15.40;99.90;;;;;;7402011;19;19923;-41
2022/11/26 11:15:42;;;;;;;1.77;0.75;;;15.30;99.90;;;;;;7400446;19;19947;-41
2022/11/26 11:18:19;;;;;;;;;;;15.30;99.90;;;;;;7402502;19;20495;-41
2022/11/26 11:20:55;;;;;;;1.75;0.85;;;15.30;99.90;;;;;;7401640;19;19915;-41
2022/11/26 11:23:27;;;;;;;1.52;0.30;;;15.30;99.90;;;;;;7401513;19;19938;-43
2022/11/26 11:26:01;;;;;;;1.52;0.52;;;15.40;99.90;;;;;;7401034;19;20269;-40
2022/11/26 11:28:36;;;;;;;2.63;1.00;;;15.30;99.90;;;;;;7400166;19;19925;-43
2022/11/26 11:31:09;;;;;;;2.08;1.13;;;15.30;99.90;;;;;;7401229;19;19925;-41
2022/11/26 11:33:38;;;;;;;1.83;0.70;;;15.30;99.90;;;;;;7401265;19;19911;-42
2022/11/26 11:36:19;;;;;;;1.90;1.10;;;15.30;99.90;;;;;;7405820;19;19943;-41
2022/11/26 11:38:50;;;;;;;2.33;1.50;;;15.30;99.90;;;;;;7405216;19;19921;-42
2022/11/26 11:41:32;;;;;;;2.70;0.95;;;15.30;99.90;;;;;;7408456;19;19933;-42
2022/11/26 11:44:08;;;;;;;2.15;1.05;;;15.30;99.90;;;;;;7408151;19;19915;-41
2022/11/26 11:47:12;;;;;;;1.65;0.65;;;15.30;99.90;;;;;;7407689;19;19918;-41
2022/11/26 11:49:52;;;;;;;2.10;1.73;;;15.30;99.90;;;;;;7407897;19;19988;-41
2022/11/26 11:52:30;;;;;;;2.40;1.02;;;15.30;99.90;;;;;;7407484;19;19970;-41
2022/11/26 11:55:04;;;;;;;1.77;0.43;;;15.30;99.90;;;;;;7407551;19;19944;-41
2022/11/26 11:57:54;;;;;;;2.53;1.13;;;15.30;99.90;;;;;;7405933;19;19941;-41
2022/11/26 12:00:32;;;;;;;1.90;0.95;;;15.30;99.90;;;;;;7408343;19;19922;-39
2022/11/26 12:03:21;;;;;;;1.83;0.43;;;15.30;99.90;;;;;;7407004;19;19915;-40
2022/11/26 12:06:13;;;;;;;1.75;0.43;;;15.30;99.90;;;;;;7406965;19;19915;-42
2022/11/26 12:08:59;;;;;;;2.33;1.15;;;15.30;99.90;;;;;;7407496;19;19918;-42
2022/11/26 12:11:39;;;;;;;2.95;1.42;;;15.30;99.90;;;;;;7406767;19;19929;-42
2022/11/26 12:14:14;;;;;;;2.13;1.27;;;15.30;99.90;;;;;;7406859;19;20374;-42
2022/11/26 12:16:50;;;;;;;1.52;0.57;;;15.30;99.90;;;;;;7406660;19;20396;-41
2022/11/26 12:19:27;;;;;;;2.33;1.17;;;15.40;99.90;;;;;;7406824;19;19914;-41
2022/11/26 12:22:00;;;;;;;1.90;0.50;;;15.40;99.90;;;;;;7406520;19;20282;-41
2022/11/26 12:24:38;;;;;;;2.45;1.17;;;15.40;99.90;;;;;;7406469;19;19926;-41
2022/11/26 12:27:13;;;;;;;3.00;1.45;;;15.40;99.90;;;;;;7406408;19;19918;-42
2022/11/26 12:29:47;;;;;;;2.13;0.60;;;15.40;99.90;;;;;;7406620;19;20596;-41
2022/11/26 12:32:25;;;;;;;2.25;1.38;;;15.40;99.90;;;;;;7406333;19;19936;-42
2022/11/26 12:34:57;;;;;;;1.90;0.65;;;15.40;99.90;;;;;;7406381;19;20249;-41
2022/11/26 12:37:32;;;;;;;1.75;0.70;;;15.40;99.90;;;;;;7405412;19;20321;-41
2022/11/26 12:40:07;;;;;;;2.00;0.60;;;15.40;99.90;;;;;;7406404;19;19948;-41
2022/11/26 12:42:40;;;;;;;;;;;15.40;99.90;;;;;;7408260;19;19985;-41
2022/11/26 12:45:20;;;;;;;2.58;1.02;;;15.40;99.90;;;;;;7405893;19;19919;-40
2022/11/26 12:47:56;;;;;;;2.13;0.47;;;15.40;99.90;;;;;;7403933;19;19936;-40
2022/11/26 12:50:31;;;;;;;2.40;1.63;;;15.40;99.90;;;;;;7406026;19;20357;-40
2022/11/26 12:53:06;;;;;;;2.08;1.45;;;15.40;99.90;;;;;;7406407;19;19918;-40
2022/11/26 12:55:43;;;;;;;2.17;0.70;;;15.40;99.90;;;;;;7405656;19;19922;-42
2022/11/26 12:58:16;;;;;;;2.35;0.85;;;15.40;99.90;;;;;;7404811;19;20474;-40
2022/11/26 13:00:48;;;;;;;1.90;1.25;;;15.40;99.90;;;;;;7405600;19;19921;-42
2022/11/26 13:03:25;;;;;;;2.75;1.08;;;15.40;99.90;;;;;;7405423;19;20728;-41
2022/11/26 13:06:01;;;;;;;2.88;0.57;;;15.40;99.90;;;;;;7405437;19;20352;-42
2022/11/26 13:08:45;;;;;;;3.33;1.08;;;15.40;99.90;;;;;;7407405;19;19932;-40
2022/11/26 13:11:26;;;;;;;2.63;0.63;;;15.40;99.90;;;;;;7405692;19;19918;-39
2022/11/26 13:14:05;;;;;;;4.18;1.80;;;15.40;99.90;;;;;;7405275;19;19923;-41